Time;durP1;ratioP1;P1;durP2;ratioP2;P2;SDS_P1;SDS_P2;PMS_P1;PMS_P2;Temp;Humidity;BMP_temperature;BMP_pressure;BME280_temperature;BME280_humidity;BME280_pressure;Samples;Min_cycle;Max_cycle;Signal;HPM_P1;HPM_P2
2021/06/25 00:00:40;;;;;;;18.60;14.63;;;16.80;99.90;;;;;;3576099;40;20065;-85
2021/06/25 00:03:09;;;;;;;19.30;14.15;;;16.70;99.90;;;;;;3582250;40;20088;-84
2021/06/25 00:05:37;;;;;;;22.40;15.40;;;16.70;99.90;;;;;;3590812;40;20073;-84
2021/06/25 00:08:07;;;;;;;22.85;14.60;;;16.60;99.90;;;;;;3582692;40;20312;-83
2021/06/25 00:10:40;;;;;;;23.92;14.65;;;16.60;99.90;;;;;;3574407;40;20080;-85
2021/06/25 00:13:08;;;;;;;25.80;14.53;;;16.50;99.90;;;;;;3588267;40;20318;-85
2021/06/25 00:15:38;;;;;;;24.02;14.70;;;16.50;99.90;;;;;;3582399;40;20334;-85
2021/06/25 00:18:06;;;;;;;23.08;14.57;;;16.50;99.90;;;;;;3590727;40;20298;-87
2021/06/25 00:20:35;;;;;;;26.67;16.67;;;16.50;99.90;;;;;;3573490;40;20103;-83
2021/06/25 00:23:03;;;;;;;27.50;15.73;;;16.60;99.90;;;;;;3573626;40;20072;-84
2021/06/25 00:25:31;;;;;;;30.65;16.30;;;16.60;99.90;;;;;;3591087;40;20064;-85
2021/06/25 00:27:59;;;;;;;;;;;16.70;99.90;;;;;;3591468;40;20284;-83
2021/06/25 00:30:33;;;;;;;22.63;15.82;;;16.70;99.90;;;;;;3597139;40;19969;-84
2021/06/25 00:33:06;;;;;;;27.52;17.33;;;16.60;99.90;;;;;;3588987;40;20055;-86
2021/06/25 00:35:37;;;;;;;25.83;16.13;;;16.60;99.90;;;;;;3580319;40;20073;-85
2021/06/25 00:38:04;;;;;;;27.55;15.55;;;16.60;99.90;;;;;;3580333;40;20068;-84
2021/06/25 00:40:33;;;;;;;27.95;16.80;;;16.60;99.90;;;;;;3587943;40;20072;-83
2021/06/25 00:43:04;;;;;;;25.33;14.73;;;16.60;99.90;;;;;;3594759;40;20314;-83
2021/06/25 00:45:34;;;;;;;24.83;14.98;;;16.60;99.90;;;;;;3591112;40;20064;-83
2021/06/25 00:48:03;;;;;;;22.20;15.48;;;16.70;99.90;;;;;;3582464;40;20072;-83
2021/06/25 00:50:33;;;;;;;21.05;14.43;;;16.70;99.90;;;;;;3589822;40;20073;-85
2021/06/25 00:53:05;;;;;;;26.48;15.38;;;16.70;99.90;;;;;;3591175;40;20084;-86
2021/06/25 00:55:42;;;;;;;26.33;15.27;;;16.70;99.90;;;;;;3589603;40;20072;-82
2021/06/25 00:58:11;;;;;;;21.95;14.52;;;16.70;99.90;;;;;;3585150;40;20100;-85
2021/06/25 01:00:42;;;;;;;26.60;14.88;;;16.70;99.90;;;;;;3595097;39;20079;-83
2021/06/25 01:03:09;;;;;;;21.57;14.90;;;16.70;99.90;;;;;;3596911;39;20331;-84
2021/06/25 01:05:43;;;;;;;22.83;15.55;;;16.70;99.90;;;;;;3601768;39;20332;-84
2021/06/25 01:08:12;;;;;;;;;;;16.70;99.90;;;;;;3612496;39;20071;-84
2021/06/25 01:10:40;;;;;;;;;;;16.70;99.90;;;;;;3602116;39;20020;-84
2021/06/25 01:13:09;;;;;;;27.20;15.73;;;16.70;99.90;;;;;;3602348;39;20264;-84
2021/06/25 01:15:39;;;;;;;25.95;15.63;;;16.70;99.90;;;;;;3601976;39;20414;-83
2021/06/25 01:18:12;;;;;;;23.10;16.25;;;16.80;99.90;;;;;;3602925;39;20323;-83
2021/06/25 01:20:42;;;;;;;21.95;15.38;;;16.70;99.90;;;;;;3611113;39;20068;-84
2021/06/25 01:23:11;;;;;;;23.20;14.30;;;16.80;99.90;;;;;;3585201;39;20095;-86
2021/06/25 01:25:40;;;;;;;21.33;15.52;;;16.80;99.90;;;;;;3590588;39;20092;-85
2021/06/25 01:28:10;;;;;;;27.50;15.45;;;16.70;99.90;;;;;;3602214;39;20092;-84
2021/06/25 01:30:40;;;;;;;23.67;13.77;;;16.70;99.90;;;;;;3593557;39;20084;-83
2021/06/25 01:33:10;;;;;;;23.58;14.77;;;16.70;99.90;;;;;;3599156;39;20064;-84
2021/06/25 01:35:38;;;;;;;24.23;16.75;;;16.70;99.90;;;;;;3602397;39;20080;-84
2021/06/25 01:38:12;;;;;;;23.98;16.58;;;16.70;99.90;;;;;;3603146;39;20068;-81
2021/06/25 01:40:40;;;;;;;24.67;16.30;;;16.70;99.90;;;;;;3593845;39;20072;-85
2021/06/25 01:43:13;;;;;;;29.10;16.25;;;16.60;99.90;;;;;;3605312;39;20076;-84
2021/06/25 01:45:42;;;;;;;23.73;16.40;;;16.60;99.90;;;;;;3606201;39;20071;-82
2021/06/25 01:48:11;;;;;;;25.48;16.75;;;16.60;99.90;;;;;;3598142;39;20063;-82
2021/06/25 01:50:42;;;;;;;28.05;16.98;;;16.60;99.90;;;;;;3604475;39;20104;-84
2021/06/25 01:53:16;;;;;;;27.05;16.90;;;16.60;99.90;;;;;;3612359;39;20087;-84
2021/06/25 01:55:50;;;;;;;30.75;17.15;;;16.60;99.90;;;;;;3593297;39;20083;-86
2021/06/25 01:58:20;;;;;;;28.13;17.45;;;16.60;99.90;;;;;;3601187;39;20383;-84
2021/06/25 02:01:10;;;;;;;28.42;17.35;;;16.70;99.90;;;;;;3592846;39;20091;-84
2021/06/25 02:03:38;;;;;;;25.33;17.33;;;16.70;99.90;;;;;;3589980;39;20080;-83
2021/06/25 02:06:06;;;;;;;23.50;16.60;;;16.70;99.90;;;;;;3601760;39;20055;-84
2021/06/25 02:08:38;;;;;;;29.30;16.23;;;16.70;99.90;;;;;;3601532;39;20083;-87
2021/06/25 02:11:09;;;;;;;31.10;17.85;;;16.70;99.90;;;;;;3593200;39;20075;-83
2021/06/25 02:13:40;;;;;;;29.48;16.92;;;16.60;99.90;;;;;;3584822;39;20098;-84
2021/06/25 02:16:08;;;;;;;23.45;16.63;;;16.60;99.90;;;;;;3601572;39;20325;-84
2021/06/25 02:18:35;;;;;;;26.80;15.77;;;16.60;99.90;;;;;;3603892;39;20055;-84
2021/06/25 02:21:06;;;;;;;29.17;15.50;;;16.60;99.90;;;;;;3598205;39;20060;-84
2021/06/25 02:23:35;;;;;;;25.27;16.60;;;16.50;99.90;;;;;;3610162;39;20035;-82
2021/06/25 02:26:03;;;;;;;25.75;17.10;;;16.60;99.90;;;;;;3590375;39;20095;-84
2021/06/25 02:28:31;;;;;;;25.27;16.00;;;16.60;99.90;;;;;;3595144;39;20091;-87
2021/06/25 02:30:59;;;;;;;24.33;16.13;;;16.50;99.90;;;;;;3594172;39;20700;-84
2021/06/25 02:33:26;;;;;;;27.15;16.15;;;16.50;99.90;;;;;;3593170;39;20076;-82
2021/06/25 02:35:55;;;;;;;27.10;17.15;;;16.50;99.90;;;;;;3601127;39;20059;-84
2021/06/25 02:38:22;;;;;;;29.30;17.55;;;16.50;99.90;;;;;;3593105;39;20084;-84
2021/06/25 02:40:51;;;;;;;29.42;17.70;;;16.50;99.90;;;;;;3592786;39;20068;-82
2021/06/25 02:43:19;;;;;;;27.65;17.60;;;16.50;99.90;;;;;;3595051;40;20064;-83
2021/06/25 02:45:47;;;;;;;33.45;18.08;;;16.40;99.90;;;;;;3610108;39;20414;-86
2021/06/25 02:48:14;;;;;;;26.80;17.45;;;16.40;99.90;;;;;;3593176;39;20063;-84
2021/06/25 02:50:42;;;;;;;28.00;17.65;;;16.40;99.90;;;;;;3593065;39;20087;-82
2021/06/25 02:53:10;;;;;;;28.90;17.15;;;16.60;99.90;;;;;;3601999;39;20067;-88
2021/06/25 02:55:50;;;;;;;28.67;17.42;;;16.80;99.90;;;;;;3596785;39;20410;-90
2021/06/25 02:58:24;;;;;;;30.60;18.52;;;16.80;99.90;;;;;;3595544;39;20092;-86
2021/06/25 03:00:53;;;;;;;30.45;19.52;;;16.80;99.90;;;;;;3605030;39;20114;-86
2021/06/25 03:03:26;;;;;;;34.10;19.40;;;16.70;99.90;;;;;;3598191;39;20084;-84
2021/06/25 03:05:54;;;;;;;29.08;19.40;;;16.70;99.90;;;;;;3605240;39;20072;-84
2021/06/25 03:08:22;;;;;;;30.80;21.00;;;16.60;99.90;;;;;;3596603;39;20060;-86
2021/06/25 03:10:53;;;;;;;36.50;19.83;;;16.50;99.90;;;;;;3605673;39;20085;-84
2021/06/25 03:13:22;;;;;;;30.65;20.13;;;16.50;99.90;;;;;;3604124;39;20110;-84
2021/06/25 03:15:50;;;;;;;40.33;21.77;;;16.50;99.90;;;;;;3594859;39;20083;-84
2021/06/25 03:18:23;;;;;;;31.17;20.15;;;16.30;99.90;;;;;;3603613;39;20064;-84
2021/06/25 03:20:50;;;;;;;31.10;20.02;;;16.20;99.90;;;;;;3604323;39;20421;-85
2021/06/25 03:23:18;;;;;;;36.83;20.33;;;16.20;99.90;;;;;;3602150;39;20076;-85
2021/06/25 03:25:48;;;;;;;30.83;19.17;;;16.50;99.90;;;;;;3604024;39;20071;-85
2021/06/25 03:28:16;;;;;;;32.77;20.20;;;16.50;99.90;;;;;;3606575;39;20111;-86
2021/06/25 03:30:45;;;;;;;33.40;20.80;;;16.60;99.90;;;;;;3608171;39;20060;-87
2021/06/25 03:33:13;;;;;;;37.65;21.48;;;16.50;99.90;;;;;;3597889;39;20091;-87
2021/06/25 03:35:40;;;;;;;34.63;20.85;;;16.50;99.90;;;;;;3596239;39;20091;-85
2021/06/25 03:38:08;;;;;;;41.60;20.23;;;16.50;99.90;;;;;;3614833;39;20087;-87
2021/06/25 03:40:37;;;;;;;39.88;21.00;;;16.50;99.90;;;;;;3597576;39;20063;-85
2021/06/25 03:43:07;;;;;;;40.88;21.85;;;16.50;99.90;;;;;;3596336;39;20060;-87
2021/06/25 03:45:35;;;;;;;42.05;22.77;;;16.50;99.90;;;;;;3613640;39;20079;-86
2021/06/25 03:48:04;;;;;;;36.80;22.25;;;16.50;99.90;;;;;;3584359;39;20075;-85
2021/06/25 03:50:32;;;;;;;32.63;20.67;;;16.50;99.90;;;;;;3603161;39;20374;-87
2021/06/25 03:53:02;;;;;;;40.60;21.33;;;16.60;99.90;;;;;;3594958;39;20087;-88
2021/06/25 03:55:30;;;;;;;29.15;20.10;;;16.60;99.90;;;;;;3611860;39;20064;-87
2021/06/25 03:57:58;;;;;;;36.50;19.52;;;16.60;99.90;;;;;;3593143;39;20060;-86
2021/06/25 04:00:28;;;;;;;29.80;19.17;;;16.60;99.90;;;;;;3602025;39;20297;-88
2021/06/25 04:02:58;;;;;;;35.55;21.85;;;16.60;99.90;;;;;;3594660;39;20111;-86
2021/06/25 04:05:27;;;;;;;36.25;20.27;;;16.60;99.90;;;;;;3594026;39;20072;-86
2021/06/25 04:07:55;;;;;;;29.20;18.75;;;16.60;99.90;;;;;;3613431;39;20072;-83
2021/06/25 04:10:23;;;;;;;35.23;18.67;;;16.60;99.90;;;;;;3601223;39;20068;-84
2021/06/25 04:12:53;;;;;;;29.27;17.85;;;16.60;99.90;;;;;;3600895;39;20296;-82
2021/06/25 04:15:25;;;;;;;34.80;18.98;;;16.60;99.90;;;;;;3606585;39;20075;-87
2021/06/25 04:17:53;;;;;;;29.40;17.88;;;16.60;99.90;;;;;;3606517;39;20060;-83
2021/06/25 04:20:20;;;;;;;32.03;18.48;;;16.70;99.90;;;;;;3582933;39;20076;-86
2021/06/25 04:22:52;;;;;;;26.50;17.30;;;16.80;99.90;;;;;;3593971;39;20091;-83
2021/06/25 04:25:19;;;;;;;26.30;17.08;;;16.80;99.90;;;;;;3602888;39;20068;-86
2021/06/25 04:27:47;;;;;;;33.35;17.85;;;16.80;99.90;;;;;;3594596;39;20072;-84
2021/06/25 04:30:16;;;;;;;33.78;18.02;;;16.90;99.90;;;;;;3594806;39;20092;-83
2021/06/25 04:32:47;;;;;;;36.25;18.15;;;16.90;99.90;;;;;;3594520;39;20087;-86
2021/06/25 04:35:15;;;;;;;;;;;16.90;99.90;;;;;;3604440;39;20069;-83
2021/06/25 04:37:43;;;;;;;28.73;16.73;;;16.90;99.90;;;;;;3595803;39;19996;-86
2021/06/25 04:40:14;;;;;;;31.77;15.80;;;16.90;99.90;;;;;;3594897;39;20396;-87
2021/06/25 04:42:46;;;;;;;24.90;15.50;;;17.00;99.90;;;;;;3603136;39;20087;-85
2021/06/25 04:45:16;;;;;;;26.35;14.60;;;17.00;99.90;;;;;;3602882;39;20454;-87
2021/06/25 04:47:45;;;;;;;24.83;15.15;;;17.10;99.90;;;;;;3594110;39;20095;-81
2021/06/25 04:50:15;;;;;;;24.30;14.32;;;17.10;99.90;;;;;;3585361;39;20099;-84
2021/06/25 04:52:45;;;;;;;21.83;14.60;;;17.20;99.90;;;;;;3594119;39;20306;-84
2021/06/25 04:55:16;;;;;;;28.40;16.60;;;17.30;99.90;;;;;;3594006;39;20410;-85
2021/06/25 04:57:51;;;;;;;24.17;15.18;;;17.30;99.90;;;;;;3593454;39;20068;-84
2021/06/25 05:00:22;;;;;;;27.17;14.43;;;17.40;99.90;;;;;;3584550;39;20110;-85
2021/06/25 05:02:51;;;;;;;25.92;13.32;;;17.50;99.90;;;;;;3602394;39;20169;-86
2021/06/25 05:05:21;;;;;;;31.50;14.90;;;17.50;99.90;;;;;;3599843;39;20080;-85
2021/06/25 05:07:48;;;;;;;23.95;14.13;;;17.60;99.90;;;;;;3593939;39;20123;-85
2021/06/25 05:10:18;;;;;;;22.17;14.15;;;17.70;99.90;;;;;;3594589;39;20084;-84
2021/06/25 05:12:46;;;;;;;27.20;15.27;;;17.80;99.90;;;;;;3595249;39;20079;-82
2021/06/25 05:15:16;;;;;;;20.95;13.18;;;17.90;99.90;;;;;;3603362;39;20073;-84
2021/06/25 05:17:44;;;;;;;20.73;12.77;;;17.90;99.90;;;;;;3592286;39;20298;-84
2021/06/25 05:20:13;;;;;;;20.52;12.00;;;17.80;99.90;;;;;;3600848;39;21950;-85
2021/06/25 05:22:41;;;;;;;19.95;12.23;;;17.80;99.90;;;;;;3596881;39;20433;-85
2021/06/25 05:25:11;;;;;;;26.80;13.80;;;17.80;99.90;;;;;;3590837;39;20060;-85
2021/06/25 05:27:41;;;;;;;19.10;13.23;;;17.90;99.90;;;;;;3597464;39;20063;-85
2021/06/25 05:30:10;;;;;;;24.48;14.60;;;18.20;99.90;;;;;;3592928;39;20060;-87
2021/06/25 05:32:38;;;;;;;27.60;15.20;;;18.10;99.90;;;;;;3596695;39;20120;-86
2021/06/25 05:35:09;;;;;;;26.63;13.63;;;18.10;99.90;;;;;;3599644;39;20286;-86
2021/06/25 05:37:40;;;;;;;33.75;14.60;;;18.10;99.90;;;;;;3593140;39;20068;-85
2021/06/25 05:40:11;;;;;;;24.85;14.52;;;18.20;99.90;;;;;;3602727;39;20087;-84
2021/06/25 05:42:41;;;;;;;25.20;14.50;;;18.40;99.90;;;;;;3612696;39;20076;-86
2021/06/25 05:45:10;;;;;;;25.63;15.60;;;18.50;99.90;;;;;;3610842;39;20414;-88
2021/06/25 05:47:40;;;;;;;29.95;14.40;;;18.60;99.90;;;;;;3601248;39;20287;-86
2021/06/25 05:50:11;;;;;;;29.15;15.90;;;18.60;99.90;;;;;;3597955;39;20072;-89
2021/06/25 05:52:39;;;;;;;22.15;13.60;;;18.70;99.90;;;;;;3593838;39;20067;-84
2021/06/25 05:55:08;;;;;;;22.42;13.63;;;18.80;99.90;;;;;;3582827;39;20071;-85
2021/06/25 05:57:37;;;;;;;22.77;11.82;;;18.90;99.90;;;;;;3593129;39;20107;-83
2021/06/25 06:00:08;;;;;;;26.95;14.55;;;19.00;99.90;;;;;;3592979;39;20064;-82
2021/06/25 06:02:36;;;;;;;24.27;13.20;;;19.10;99.90;;;;;;3593247;39;20091;-85
2021/06/25 06:05:08;;;;;;;19.65;12.45;;;19.20;99.90;;;;;;3587496;39;20446;-84
2021/06/25 06:07:36;;;;;;;21.10;11.05;;;19.30;99.90;;;;;;3591856;40;20076;-85
2021/06/25 06:10:05;;;;;;;25.73;12.65;;;19.50;99.90;;;;;;3582620;40;20092;-83
2021/06/25 06:12:33;;;;;;;27.48;12.32;;;19.50;99.90;;;;;;3584351;40;20048;-83
2021/06/25 06:15:07;;;;;;;19.67;11.25;;;19.60;99.90;;;;;;3591797;40;20088;-84
2021/06/25 06:17:38;;;;;;;25.50;11.57;;;19.60;99.90;;;;;;3592229;40;20068;-84
2021/06/25 06:20:16;;;;;;;21.77;10.55;;;19.70;99.90;;;;;;3586479;40;20084;-84
2021/06/25 06:31:17;;;;;;;28.35;12.05;;;20.30;99.90;;;;;;3593641;40;20048;-83
2021/06/25 06:33:54;;;;;;;19.33;9.73;;;20.50;99.90;;;;;;3601459;40;20040;-83
2021/06/25 06:36:25;;;;;;;20.10;9.85;;;20.70;99.90;;;;;;3577234;40;20088;-84
2021/06/25 06:38:53;;;;;;;50.00;11.18;;;20.70;99.90;;;;;;3588566;40;20072;-81
2021/06/25 06:41:21;;;;;;;;;;;20.90;99.90;;;;;;3607832;40;20141;-86
2021/06/25 06:43:51;;;;;;;86.70;11.65;;;21.00;99.90;;;;;;3600904;40;19961;-82
2021/06/25 06:46:20;;;;;;;176.55;16.35;;;21.20;99.90;;;;;;3598196;40;20067;-81
2021/06/25 06:48:51;;;;;;;143.73;13.43;;;21.20;99.90;;;;;;3603321;40;20407;-87
2021/06/25 06:51:20;;;;;;;68.40;9.57;;;21.20;99.90;;;;;;3602385;40;20073;-84
2021/06/25 06:53:52;;;;;;;38.45;8.27;;;21.20;99.90;;;;;;3576345;40;20303;-83
2021/06/25 06:56:22;;;;;;;60.42;9.70;;;21.30;99.90;;;;;;3584691;40;20313;-85
2021/06/25 06:58:53;;;;;;;114.20;13.98;;;21.30;99.90;;;;;;3588097;40;20146;-82
2021/06/25 07:01:24;;;;;;;38.40;9.07;;;21.30;99.90;;;;;;3585370;40;20083;-84
2021/06/25 07:03:52;;;;;;;52.25;9.48;;;21.30;99.90;;;;;;3585484;40;20116;-86
2021/06/25 07:06:19;;;;;;;28.85;8.02;;;21.40;99.90;;;;;;3587325;40;20144;-83
2021/06/25 07:08:47;;;;;;;19.23;7.00;;;21.40;99.90;;;;;;3576578;40;20092;-85
2021/06/25 07:11:16;;;;;;;32.55;7.72;;;21.40;99.90;;;;;;3583966;40;20069;-83
2021/06/25 07:13:44;;;;;;;26.23;9.32;;;21.30;99.90;;;;;;3590149;40;20091;-87
2021/06/25 07:16:15;;;;;;;23.27;7.00;;;21.40;99.90;;;;;;3594010;40;20084;-84
2021/06/25 07:18:47;;;;;;;24.33;6.60;;;21.50;99.90;;;;;;3587153;40;20284;-83
2021/06/25 07:21:18;;;;;;;20.40;7.53;;;21.60;99.90;;;;;;3582116;40;20084;-84
2021/06/25 07:23:46;;;;;;;15.98;9.00;;;21.80;99.90;;;;;;3571650;40;20088;-84
2021/06/25 07:26:14;;;;;;;23.70;11.47;;;21.90;99.90;;;;;;3584231;40;20107;-86
2021/06/25 07:28:42;;;;;;;25.15;12.75;;;21.60;99.90;;;;;;3585836;40;20400;-87
2021/06/25 07:31:12;;;;;;;28.00;13.27;;;20.80;99.90;;;;;;3586418;40;20060;-85
2021/06/25 07:33:40;;;;;;;26.80;13.52;;;20.10;99.90;;;;;;3585306;40;20040;-85
2021/06/25 07:36:09;;;;;;;32.97;13.57;;;19.70;99.90;;;;;;3584289;40;20068;-87
2021/06/25 07:38:39;;;;;;;24.88;13.73;;;19.60;99.90;;;;;;3577953;40;20315;-90
2021/06/25 07:41:07;;;;;;;26.58;13.23;;;19.40;99.90;;;;;;3587648;40;20407;-87
2021/06/25 07:43:35;;;;;;;30.45;15.20;;;19.20;99.90;;;;;;3587376;40;20317;-87
2021/06/25 07:46:03;;;;;;;26.85;14.27;;;19.00;99.90;;;;;;3598081;40;20084;-86
2021/06/25 07:48:31;;;;;;;26.30;14.32;;;19.10;99.90;;;;;;3600311;40;20545;-88
2021/06/25 07:50:59;;;;;;;33.80;15.47;;;19.10;99.90;;;;;;3586009;40;20087;-88
2021/06/25 07:53:28;;;;;;;35.10;14.65;;;19.20;99.90;;;;;;3582721;40;20065;-85
2021/06/25 07:55:56;;;;;;;29.55;15.93;;;18.90;99.90;;;;;;3587379;40;20044;-84
2021/06/25 07:58:24;;;;;;;31.73;14.90;;;18.90;99.90;;;;;;3573680;40;20065;-84
2021/06/25 08:00:56;;;;;;;31.65;15.38;;;18.80;99.90;;;;;;3598693;40;20063;-88
2021/06/25 08:03:30;;;;;;;25.15;14.25;;;19.10;99.90;;;;;;3593274;40;20092;-87
2021/06/25 08:05:58;;;;;;;22.55;13.95;;;19.60;99.90;;;;;;3582406;39;20085;-86
2021/06/25 08:08:27;;;;;;;26.35;12.60;;;20.30;99.90;;;;;;3678356;22;20313;-85
2021/06/25 08:10:56;;;;;;;20.13;12.07;;;20.80;99.90;;;;;;3622423;39;20076;-85
2021/06/25 08:13:25;;;;;;;24.40;12.20;;;20.90;99.90;;;;;;3620983;39;20063;-84
2021/06/25 08:15:57;;;;;;;23.85;12.00;;;21.30;99.90;;;;;;3611615;39;20059;-86
2021/06/25 08:18:29;;;;;;;22.30;12.05;;;21.50;99.90;;;;;;3608352;39;20055;-84
2021/06/25 08:21:02;;;;;;;28.23;11.32;;;21.70;99.90;;;;;;3593769;40;20080;-86
2021/06/25 08:23:35;;;;;;;16.30;9.18;;;21.80;99.90;;;;;;3578667;40;20069;-84
2021/06/25 08:26:05;;;;;;;19.00;11.45;;;22.10;99.90;;;;;;3588320;40;20043;-84
2021/06/25 08:28:33;;;;;;;23.02;10.40;;;22.20;99.90;;;;;;3583036;40;20060;-84
2021/06/25 08:31:21;;;;;;;16.10;10.10;;;22.00;99.90;;;;;;3584833;40;20061;-85
2021/06/25 08:34:10;;;;;;;17.98;9.55;;;21.80;99.90;;;;;;3597601;40;20065;-83
2021/06/25 08:36:39;;;;;;;14.93;7.90;;;21.90;99.90;;;;;;3594359;40;20076;-83
2021/06/25 08:39:12;;;;;;;52.45;8.05;;;22.00;99.90;;;;;;3591929;40;20057;-84
2021/06/25 08:41:39;;;;;;;59.25;8.93;;;22.50;99.90;;;;;;3578654;40;20112;-87
2021/06/25 08:44:32;;;;;;;14.00;7.63;;;22.90;99.90;;;;;;3580080;40;20068;-88
2021/06/25 08:58:34;;;;;;;22.05;8.27;;;23.60;99.90;;;;;;3616635;39;20396;-82
2021/06/25 09:01:05;;;;;;;22.67;7.07;;;24.10;98.90;;;;;;3602304;39;20087;-83
2021/06/25 09:03:33;;;;;;;14.10;6.28;;;24.50;95.60;;;;;;3599606;39;20060;-87
2021/06/25 09:06:17;;;;;;;13.90;6.20;;;24.90;94.30;;;;;;3596019;39;20075;-83
2021/06/25 09:08:52;;;;;;;12.50;5.50;;;25.20;90.90;;;;;;3573190;40;20212;-83
2021/06/25 09:11:30;;;;;;;;;;;25.20;89.90;;;;;;3571795;40;20148;-82
2021/06/25 09:14:03;;;;;;;13.43;4.90;;;25.20;86.60;;;;;;3566554;40;20022;-82
2021/06/25 09:17:05;;;;;;;13.60;5.22;;;25.20;85.50;;;;;;3575357;40;20077;-87
2021/06/25 09:19:50;;;;;;;9.43;4.40;;;25.60;80.30;;;;;;3843643;22;20053;31
2021/06/25 09:22:19;;;;;;;9.40;4.47;;;25.80;79.00;;;;;;3545602;40;20070;-82
2021/06/25 09:25:02;;;;;;;12.88;4.88;;;26.10;76.10;;;;;;3537199;40;20086;-84
2021/06/25 09:27:33;;;;;;;22.13;5.40;;;26.10;75.90;;;;;;3532806;40;20117;-83
2021/06/25 09:30:11;;;;;;;14.48;6.65;;;26.40;75.50;;;;;;3542334;40;20082;-82
2021/06/25 09:32:42;;;;;;;25.80;7.00;;;26.30;76.60;;;;;;3533623;40;20082;-82
2021/06/25 09:35:17;;;;;;;17.45;6.88;;;26.30;76.10;;;;;;3537229;40;20090;-82
2021/06/25 09:37:47;;;;;;;16.70;6.82;;;26.30;75.10;;;;;;3543002;40;20066;-84
2021/06/25 09:40:16;;;;;;;10.82;6.05;;;26.40;74.60;;;;;;3535004;40;20066;-83
2021/06/25 09:42:47;;;;;;;17.15;6.00;;;26.40;74.70;;;;;;3547955;40;20078;-83
2021/06/25 09:45:17;;;;;;;11.05;5.70;;;26.40;74.40;;;;;;3545106;40;20393;-84
2021/06/25 09:47:52;;;;;;;14.93;7.40;;;25.80;73.60;;;;;;3548263;40;20090;-84
2021/06/25 09:50:21;;;;;;;13.98;7.53;;;25.60;77.00;;;;;;3550002;40;20138;-82
2021/06/25 09:52:55;;;;;;;12.15;8.05;;;25.50;80.10;;;;;;3542619;40;20037;-82
2021/06/25 09:55:51;;;;;;;17.58;9.02;;;25.40;82.60;;;;;;3549934;40;20365;-82
2021/06/25 09:58:32;;;;;;;18.10;7.95;;;25.10;83.90;;;;;;3535804;40;20394;-84
2021/06/25 10:01:24;;;;;;;15.77;8.52;;;24.90;85.20;;;;;;3547268;40;20070;-85
2021/06/25 10:03:58;;;;;;;20.85;9.13;;;24.80;87.40;;;;;;3533727;40;20086;-83
2021/06/25 10:06:27;;;;;;;17.15;7.85;;;24.60;87.70;;;;;;3550628;40;20299;-82
2021/06/25 10:08:55;;;;;;;19.50;8.40;;;24.50;88.10;;;;;;3544092;40;20081;-85
2021/06/25 10:11:25;;;;;;;19.23;8.10;;;24.30;88.20;;;;;;3543334;40;20098;-83
2021/06/25 10:13:57;;;;;;;15.43;7.50;;;24.10;89.20;;;;;;3542805;40;20069;-84
2021/06/25 10:16:27;;;;;;;12.02;7.22;;;23.90;89.50;;;;;;3535818;40;20094;-85
2021/06/25 10:18:57;;;;;;;13.85;8.20;;;23.80;89.20;;;;;;3551781;40;20070;-83
2021/06/25 10:21:26;;;;;;;13.20;7.88;;;23.70;89.80;;;;;;3533374;40;20070;-84
2021/06/25 10:23:55;;;;;;;20.95;9.90;;;23.70;90.20;;;;;;3542437;40;20110;-82
2021/06/25 10:26:30;;;;;;;21.55;9.82;;;23.70;92.60;;;;;;3543033;40;20071;-87
2021/06/25 10:28:58;;;;;;;20.58;10.50;;;23.60;94.00;;;;;;3544731;40;20089;-85
2021/06/25 10:31:27;;;;;;;40.28;13.30;;;23.70;94.70;;;;;;3535269;40;20070;-84
2021/06/25 10:33:57;;;;;;;26.05;10.90;;;23.60;95.00;;;;;;3534199;40;20129;-82
2021/06/25 10:36:32;;;;;;;20.48;9.70;;;23.60;95.50;;;;;;3550666;40;20070;-83
2021/06/25 10:39:06;;;;;;;20.35;9.20;;;23.70;95.70;;;;;;3536186;40;20074;-82
2021/06/25 10:41:51;;;;;;;27.40;10.20;;;23.90;95.60;;;;;;3537148;40;20097;-82
2021/06/25 10:44:35;;;;;;;33.08;10.60;;;23.90;95.30;;;;;;3549432;40;20067;-84
2021/06/25 10:47:19;;;;;;;25.13;11.15;;;24.00;95.40;;;;;;3544493;40;20074;-84
2021/06/25 10:50:19;;;;;;;16.98;9.55;;;24.00;95.40;;;;;;3530167;40;20098;-84
2021/06/25 10:53:13;;;;;;;17.15;9.32;;;24.10;95.30;;;;;;3538883;40;20074;-82
2021/06/25 10:55:48;;;;;;;17.50;10.27;;;24.30;95.00;;;;;;3527840;40;20074;-84
2021/06/25 10:58:24;;;;;;;19.67;9.68;;;24.30;94.20;;;;;;3540740;40;20385;-85
2021/06/25 11:00:56;;;;;;;15.23;9.68;;;24.40;94.20;;;;;;3540633;40;20041;-82
2021/06/25 11:03:36;;;;;;;16.13;9.20;;;24.70;93.70;;;;;;3534096;40;20090;-82
2021/06/25 11:06:05;;;;;;;17.92;9.27;;;25.00;92.40;;;;;;3535650;40;20067;-81
2021/06/25 11:08:35;;;;;;;15.77;10.20;;;25.10;91.90;;;;;;3538965;40;20169;-82
2021/06/25 11:11:05;;;;;;;9.80;5.13;;;25.20;91.50;;;;;;3581189;23;20085;-84
2021/06/25 11:13:36;;;;;;;14.00;6.80;;;25.30;93.00;;;;;;3579267;40;20076;-82
